Etusivu
METAR-TAF:

METAR-TAF

Lentoasemat :

Trent Lott International Airport

Pascagoula, Mississippi, Yhdysvallat

Leveyspiiri: 30-27-49N, Pituuspiiri: 088-31-55W, korkeus merenpinnasta: 5 m

Tämänhetkinen sää

Tämä raportti tehtiin 33 minuuttia sitten, kello 17.53 UTC
Tuuli 4 kn eri suunnista
Lämpötila 9°C
Kosteus 46%
Ilmanpaine 1025 hPa
Näkyvyys: 16.1 km
selkeää

METAR: KPQL 131753Z VRB04KT 10SM CLR 09/M02 A3027 RMK AO2 SLP252 T00941017 10100 21022 58024

Aika: 12:26 (18:26 UTC)


TAF: puuttuu

Säähavainnot ja -ennusteet yli 4000 lentoasemalta (METAR- ja TAF-raportit).

Käytössä olevat sääasemat on merkitty karttaan keltaisilla ja punaisilla pisteillä.

Aseta hiiri pisteen päälle nähdäksesi sääaseman nimen.

Klikkaa sitten nähdäksesi säähavainnot ja -ennusteet.

Kartan vaihtaminen: klikkaa mustalla rastilla varustettuja vihreitä pisteitä, niin voit zoomata sisään; viivalla varustettua vihreää pistettä, niin voit zoomata ulos tai vihreitä nuolia, niin pääset viereisille kartoille.


METAR-TAF: